createdAt,value
2016-07-05T00:01:53.007Z,0
2016-07-05T00:06:53.624Z,0
2016-07-05T00:11:53.592Z,0
2016-07-05T00:16:52.970Z,0
2016-07-05T00:21:53.562Z,0
2016-07-05T00:26:52.900Z,0
2016-07-05T00:31:53.521Z,0
2016-07-05T00:36:52.894Z,0
2016-07-05T00:41:52.885Z,0
2016-07-05T00:46:52.249Z,0
2016-07-05T00:51:52.825Z,0
2016-07-05T00:56:53.426Z,0
2016-07-05T01:01:52.785Z,0
2016-07-05T01:06:52.768Z,0
2016-07-05T01:11:53.348Z,0
2016-07-05T01:16:53.317Z,0
2016-07-05T01:21:52.087Z,0
2016-07-05T01:26:52.672Z,0
2016-07-05T01:31:53.263Z,0
2016-07-05T01:36:52.035Z,0
2016-07-05T01:41:53.238Z,0
2016-07-05T01:46:52.606Z,0
2016-07-05T01:51:52.593Z,0
2016-07-05T01:56:53.179Z,0
2016-07-05T02:01:53.453Z,0
2016-07-05T02:06:52.868Z,0
2016-07-05T02:11:52.498Z,0
2016-07-05T02:16:52.491Z,0
2016-07-05T02:21:53.089Z,0
2016-07-05T02:26:53.042Z,0
2016-07-05T02:31:53.026Z,0
2016-07-05T02:36:52.997Z,0
2016-07-05T02:41:52.378Z,0
2016-07-05T02:46:51.771Z,0
2016-07-05T02:51:52.967Z,0
2016-07-05T02:56:52.920Z,0
2016-07-05T03:01:52.940Z,0
2016-07-05T03:06:52.294Z,0
2016-07-05T03:11:52.290Z,0
2016-07-05T03:16:52.880Z,0
2016-07-05T03:21:52.853Z,5
2016-07-05T03:26:52.840Z,5
2016-07-05T03:31:52.222Z,10
2016-07-05T03:36:52.181Z,15
2016-07-05T03:41:52.765Z,20
2016-07-05T03:46:52.148Z,25
2016-07-05T03:51:52.114Z,25
2016-07-05T03:56:52.120Z,30
2016-07-05T04:01:52.124Z,45
2016-07-05T04:06:52.091Z,60
2016-07-05T04:11:51.457Z,80
2016-07-05T04:16:52.071Z,95
2016-07-05T04:21:52.037Z,95
2016-07-05T04:26:52.036Z,110
2016-07-05T04:31:51.983Z,115
2016-07-05T04:36:52.566Z,145
2016-07-05T04:41:51.959Z,175
2016-07-05T04:46:51.965Z,225
2016-07-05T04:51:51.947Z,235
2016-07-05T04:56:51.944Z,230
2016-07-05T05:01:51.932Z,200
2016-07-05T05:06:51.913Z,260
2016-07-05T05:11:52.510Z,315
2016-07-05T05:16:51.311Z,380
2016-07-05T05:21:52.521Z,405
2016-07-05T05:26:51.920Z,340
2016-07-05T05:31:51.903Z,290
2016-07-05T05:36:51.915Z,255
2016-07-05T05:41:51.922Z,120
2016-07-05T05:46:52.516Z,105
2016-07-05T05:51:52.622Z,100
2016-07-05T05:56:52.519Z,95
2016-07-05T06:01:51.296Z,110
2016-07-05T06:06:52.521Z,120
2016-07-05T06:11:51.902Z,135
2016-07-05T06:16:51.293Z,130
2016-07-05T06:21:52.518Z,120
2016-07-05T06:26:51.256Z,140
2016-07-05T06:31:51.863Z,180
2016-07-05T06:36:52.473Z,200
2016-07-05T06:41:52.451Z,195
2016-07-05T06:46:51.834Z,165
2016-07-05T06:51:52.446Z,225
2016-07-05T06:56:52.434Z,290
2016-07-05T07:01:51.232Z,190
2016-07-05T07:06:51.832Z,180
2016-07-05T07:11:52.456Z,155
2016-07-05T07:16:51.223Z,130
2016-07-05T07:21:51.213Z,175
2016-07-05T07:26:51.817Z,180
2016-07-05T07:31:51.218Z,110
2016-07-05T07:36:51.844Z,135
2016-07-05T07:41:51.850Z,125
2016-07-05T07:46:52.449Z,115
2016-07-05T07:51:51.236Z,160
2016-07-05T07:56:51.834Z,125
